KUCY/UCY METAR and TAF weather

Enter ICAO airport designator
Station Type Date Time Source
KUCY METAR 2022/06/30 12:55 UTC NOAA

KUCY 301255Z AUTO 19007KT 9SM CLR 24/18 A3013 RMK A01


Station Type Date Time Source
KUCY Decoded METAR 2022/06/30 12:55 UTC NOAA

Station name not available
Jun 30, 2022 - 08:55 AM EDT / 2022.06.30 1255 UTC
Wind: from the S (190 degrees) at 8 MPH (7 KT):0
Visibility: 9 mile(s):0
Sky conditions: clear
Temperature: 75 F (24 C)
Dew Point: 64 F (18 C)
Relative Humidity: 69%
Pressure (altimeter): 30.13 in. Hg (1020 hPa)
ob: KUCY 301255Z AUTO 19007KT 9SM CLR 24/18 A3013 RMK A01
cycle: 13

Station Type Date Time Source
KUCY TAF UTC NOAA

Error!

Example: see airport list